Time;durP1;ratioP1;P1;durP2;ratioP2;P2;SDS_P1;SDS_P2;PMS_P1;PMS_P2;Temp;Humidity;BMP_temperature;BMP_pressure;BME280_temperature;BME280_humidity;BME280_pressure;Samples;Min_cycle;Max_cycle;Signal;HPM_P1;HPM_P2
2022/06/25 00:00:56;;;;;;;6.45;2.58;;;;;;;19.70;81.48;99609.78;10064186;29;20053;-69
2022/06/25 00:05:57;;;;;;;5.72;2.25;;;;;;;18.92;81.18;99477.63;10064261;29;20505;-70
2022/06/25 00:10:58;;;;;;;4.68;2.10;;;;;;;18.85;80.80;99483.19;10064541;29;20486;-71
2022/06/25 00:15:59;;;;;;;3.30;1.70;;;;;;;19.51;80.64;99612.69;10063867;29;20041;-69
2022/06/25 00:21:00;;;;;;;8.25;2.40;;;;;;;19.39;80.69;99611.97;10064356;29;20052;-70
2022/06/25 00:26:01;;;;;;;11.38;2.08;;;;;;;19.54;80.67;99655.31;10063460;29;20052;-70
2022/06/25 00:31:01;;;;;;;8.95;2.28;;;;;;;19.52;81.56;99654.72;10063392;29;20041;-71
2022/06/25 00:36:02;;;;;;;3.50;2.00;;;;;;;19.44;81.06;99638.97;10061461;29;20414;-70
2022/06/25 00:41:03;;;;;;;3.90;1.85;;;;;;;19.56;80.94;99660.44;10062991;29;20051;-70
2022/06/25 00:46:05;;;;;;;5.20;2.42;;;;;;;19.61;81.89;99665.94;10062428;29;20524;-71
2022/06/25 00:51:14;;;;;;;3.15;1.80;;;;;;;19.65;82.54;99642.84;10062375;29;20502;-70
2022/06/25 00:56:15;;;;;;;3.13;1.70;;;;;;;18.37;81.02;99452.19;10063021;29;20052;-70
2022/06/25 01:01:17;;;;;;;17.15;2.95;;;;;;;19.52;82.67;99635.88;10062413;29;20064;-70
2022/06/25 01:06:18;;;;;;;6.18;2.05;;;;;;;19.51;82.29;99647.72;10062157;29;20045;-70
2022/06/25 01:11:19;;;;;;;3.08;1.90;;;;;;;19.41;82.20;99644.03;10061363;29;20061;-70
2022/06/25 01:16:21;;;;;;;10.93;2.90;;;;;;;19.45;82.93;99635.22;10061568;29;20045;-71
2022/06/25 01:21:22;;;;;;;7.00;3.30;;;;;;;19.60;83.34;99657.03;10061620;29;20049;-71
2022/06/25 01:26:22;;;;;;;6.00;2.67;;;;;;;19.59;82.88;99635.72;10061791;29;20045;-71
2022/06/25 01:31:23;;;;;;;6.07;2.47;;;;;;;19.56;82.60;99641.59;10061726;29;20056;-71
2022/06/25 01:36:25;;;;;;;3.10;2.03;;;;;;;18.85;82.89;99549.63;10060447;29;20080;-70
2022/06/25 01:41:25;;;;;;;3.70;2.25;;;;;;;18.79;83.24;99583.72;10059647;29;20076;-70
2022/06/25 01:46:26;;;;;;;5.63;2.10;;;;;;;18.00;83.63;99463.28;10061036;29;20049;-71
2022/06/25 01:51:27;;;;;;;6.70;2.33;;;;;;;18.00;84.23;99460.59;10060072;29;20131;-71
2022/06/25 01:56:28;;;;;;;4.25;2.22;;;;;;;19.10;84.35;99643.47;10060024;29;20533;-71
2022/06/25 02:01:28;;;;;;;4.65;2.70;;;;;;;19.32;84.32;99662.44;10060149;29;20065;-71
2022/06/25 02:06:30;;;;;;;15.85;2.70;;;;;;;19.10;84.81;99646.97;10059904;29;20061;-71
2022/06/25 02:11:30;;;;;;;11.38;2.42;;;;;;;19.09;84.73;99655.31;10058420;29;20053;-71
2022/06/25 02:16:31;;;;;;;4.10;2.60;;;;;;;19.21;85.76;99682.19;10060332;29;20529;-70
2022/06/25 02:21:32;;;;;;;9.15;2.72;;;;;;;19.31;85.56;99690.44;10059642;29;20128;-71
2022/06/25 02:26:33;;;;;;;3.35;2.20;;;;;;;19.32;85.26;99711.72;10059184;29;20533;-70
2022/06/25 02:31:34;;;;;;;6.88;2.67;;;;;;;19.28;86.28;99715.97;10058984;29;20490;-70
2022/06/25 02:36:34;;;;;;;7.32;2.55;;;;;;;19.38;86.46;99726.97;10058869;29;20045;-70
2022/06/25 02:41:35;;;;;;;15.35;3.60;;;;;;;19.50;87.34;99736.84;10058386;29;20037;-70
2022/06/25 02:46:36;;;;;;;4.78;2.30;;;;;;;19.60;87.05;99734.34;10058458;29;20060;-71
2022/06/25 02:51:37;;;;;;;4.20;2.42;;;;;;;19.33;87.05;99681.06;10059381;29;20417;-71
2022/06/25 03:01:57;;;;;;;6.35;3.33;;;;;;;19.79;86.32;99721.50;10092141;29;20071;-71
2022/06/25 03:06:57;;;;;;;7.57;2.03;;;;;;;19.34;85.42;99634.22;10095576;29;20502;-71
2022/06/25 03:11:58;;;;;;;4.50;1.85;;;;;;;20.00;84.22;99715.38;10084242;29;20072;-71
2022/06/25 03:16:59;;;;;;;5.20;1.60;;;;;;;20.32;83.14;99730.97;10057679;29;20110;-71
2022/06/25 03:22:02;;;;;;;10.30;1.75;;;;;;;20.53;82.41;99721.34;10056607;29;20057;-71
2022/06/25 03:27:03;;;;;;;5.78;2.17;;;;;;;20.48;80.71;99656.47;10055807;29;20133;-70
2022/06/25 03:32:04;;;;;;;5.82;1.55;;;;;;;21.03;78.69;99706.03;10056831;29;20518;-71
2022/06/25 03:37:05;;;;;;;7.50;1.80;;;;;;;21.16;77.08;99714.56;10057609;29;20045;-71
2022/06/25 03:42:06;;;;;;;3.10;1.42;;;;;;;20.53;76.43;99651.19;10056293;29;20105;-71
2022/06/25 03:47:07;;;;;;;3.90;1.58;;;;;;;20.33;76.39;99643.59;10056861;29;20042;-71
2022/06/25 03:52:08;;;;;;;6.43;1.35;;;;;;;20.83;75.92;99753.31;10056473;29;20050;-71
2022/06/25 03:57:09;;;;;;;3.97;1.13;;;;;;;20.69;75.31;99752.03;10057273;29;20107;-71
2022/06/25 04:02:10;;;;;;;3.90;1.40;;;;;;;19.98;76.00;99650.13;10070435;29;20062;-71
2022/06/25 04:07:10;;;;;;;4.57;1.40;;;;;;;20.71;75.88;99793.09;10056573;29;20057;-71
2022/06/25 04:12:12;;;;;;;6.15;1.50;;;;;;;20.61;75.41;99774.88;10055767;29;20409;-70
2022/06/25 04:17:12;;;;;;;2.90;1.27;;;;;;;20.69;76.27;99790.63;10056068;29;20045;-71
2022/06/25 04:22:13;;;;;;;2.63;1.40;;;;;;;20.54;77.05;99778.81;10071041;29;20490;-71
2022/06/25 04:29:03;;;;;;;4.88;1.35;;;;;;;20.59;77.00;99792.38;10055566;29;20399;-70
2022/06/25 04:32:35;;;;;;;4.03;1.25;;;;;;;20.74;76.04;99796.13;10071616;29;20060;-71
2022/06/25 04:37:36;;;;;;;3.42;1.05;;;;;;;20.70;74.05;99781.50;10100717;29;20037;-70
2022/06/25 04:42:37;;;;;;;6.18;1.30;;;;;;;20.74;74.17;99771.00;10102416;29;20087;-70
2022/06/25 04:47:38;;;;;;;3.17;1.58;;;;;;;20.83;74.84;99785.72;10084371;29;20105;-71
2022/06/25 04:52:39;;;;;;;27.83;3.45;;;;;;;20.86;75.30;99804.09;10065173;29;20046;-70
2022/06/25 04:57:40;;;;;;;4.25;1.50;;;;;;;19.67;74.59;99616.47;10099078;29;20417;-70
2022/06/25 05:02:40;;;;;;;10.82;2.55;;;;;;;20.39;74.48;99717.31;10100492;29;20053;-70
2022/06/25 05:07:41;;;;;;;8.98;1.90;;;;;;;21.04;74.54;99815.69;10100088;29;20061;-71
2022/06/25 05:18:01;;;;;;;3.75;1.10;;;;;;;21.14;72.09;99786.09;10099627;29;20593;-71
2022/06/25 05:23:02;;;;;;;4.50;1.40;;;;;;;21.10;71.38;99768.78;10100192;29;20065;-71
2022/06/25 05:28:03;;;;;;;8.07;1.35;;;;;;;21.38;71.59;99792.91;10089446;29;20049;-72
2022/06/25 05:33:04;;;;;;;6.50;1.33;;;;;;;21.58;70.15;99784.22;10061858;29;20052;-72
2022/06/25 05:38:07;;;;;;;9.15;1.60;;;;;;;21.50;69.46;99754.13;10068852;29;20049;-71
2022/06/25 05:43:08;;;;;;;5.45;1.40;;;;;;;21.54;68.73;99741.72;10073147;29;20089;-70
2022/06/25 05:48:09;;;;;;;11.85;1.60;;;;;;;21.39;67.85;99670.28;10060333;29;20136;-70
2022/06/25 05:53:10;;;;;;;5.85;1.25;;;;;;;22.13;67.86;99773.38;10105736;29;20417;-71
2022/06/25 05:58:12;;;;;;;3.72;1.10;;;;;;;22.26;67.21;99781.91;10137485;29;20051;-70
2022/06/25 06:03:13;;;;;;;6.40;1.33;;;;;;;22.36;66.76;99781.16;10094510;29;20048;-72
2022/06/25 06:08:14;;;;;;;8.88;1.65;;;;;;;22.49;66.49;99774.47;10059377;29;20049;-71
2022/06/25 06:13:15;;;;;;;15.25;3.63;;;;;;;22.40;66.25;99748.97;10074149;29;20089;-70
2022/06/25 06:18:15;;;;;;;7.38;2.58;;;;;;;22.61;65.79;99761.56;10105818;29;20045;-72
2022/06/25 06:23:16;;;;;;;7.95;3.58;;;;;;;22.67;64.77;99775.94;10093600;29;20044;-71
2022/06/25 06:28:17;;;;;;;9.95;4.05;;;;;;;22.61;64.61;99763.47;10097479;29;20056;-70
2022/06/25 06:33:18;;;;;;;8.80;3.22;;;;;;;22.65;64.64;99762.69;10097106;29;20104;-70
2022/06/25 06:38:18;;;;;;;7.68;3.28;;;;;;;22.41;65.17;99672.16;10097654;29;20055;-70
2022/06/25 06:43:19;;;;;;;8.25;2.78;;;;;;;23.10;62.40;99747.75;10096528;29;20097;-70
2022/06/25 06:48:20;;;;;;;7.38;4.60;;;;;;;22.85;61.61;99669.06;10074883;29;20061;-70
2022/06/25 06:53:21;;;;;;;10.50;3.97;;;;;;;23.65;60.62;99764.44;10072732;29;20545;-70
2022/06/25 06:58:22;;;;;;;8.35;2.40;;;;;;;23.96;60.51;99762.63;10056415;29;20042;-70
2022/06/25 07:03:23;;;;;;;9.70;4.55;;;;;;;24.30;59.86;99759.34;10058188;29;20065;-70
2022/06/25 07:08:24;;;;;;;5.20;3.00;;;;;;;24.67;58.19;99739.22;10057794;29;20061;-70
2022/06/25 07:13:24;;;;;;;84.95;45.22;;;;;;;25.27;57.84;99735.47;10057096;29;20045;-69
2022/06/25 07:18:25;;;;;;;15.63;5.75;;;;;;;25.79;55.50;99729.72;10058558;29;20093;-70
2022/06/25 07:23:26;;;;;;;11.63;3.60;;;;;;;26.20;54.50;99724.75;10058009;29;20045;-70
2022/06/25 07:28:27;;;;;;;9.85;2.88;;;;;;;26.60;53.04;99730.94;10057264;29;20414;-70
2022/06/25 07:33:29;;;;;;;7.53;2.03;;;;;;;26.74;50.93;99723.66;10056748;29;20529;-72
2022/06/25 07:38:30;;;;;;;9.37;2.07;;;;;;;27.04;50.67;99724.38;10070159;29;20045;-70
2022/06/25 07:43:32;;;;;;;5.15;1.80;;;;;;;26.68;49.68;99623.22;10057709;29;20053;-71
2022/06/25 07:48:32;;;;;;;14.65;1.60;;;;;;;27.42;49.07;99705.38;10056650;29;20042;-71
2022/06/25 07:53:33;;;;;;;20.80;11.05;;;;;;;27.56;47.87;99716.34;10055721;29;20047;-70
2022/06/25 07:58:34;;;;;;;13.50;3.05;;;;;;;28.02;46.55;99730.09;10055814;29;20533;-69
2022/06/25 08:03:35;;;;;;;4.32;1.70;;;;;;;28.45;42.98;99735.41;10091842;29;20056;-71
2022/06/25 08:08:36;;;;;;;6.20;1.88;;;;;;;28.57;41.63;99737.59;10096095;29;20048;-70
2022/06/25 08:13:37;;;;;;;9.30;4.90;;;;;;;28.25;41.32;99730.28;10095542;29;20048;-70
2022/06/25 08:18:39;;;;;;;8.10;4.05;;;;;;;28.42;42.47;99725.88;10099193;29;20064;-70
2022/06/25 08:23:40;;;;;;;11.77;2.07;;;;;;;28.65;41.72;99704.91;10111871;29;20036;-70
2022/06/25 08:28:42;;;;;;;24.77;5.68;;;;;;;28.37;41.19;99684.16;10109754;29;20564;-70
2022/06/25 08:33:43;;;;;;;4.32;2.03;;;;;;;28.55;40.67;99696.94;10099638;29;20048;-69
2022/06/25 08:38:44;;;;;;;6.63;2.20;;;;;;;28.46;39.68;99690.56;10100633;29;20088;-69
2022/06/25 08:43:45;;;;;;;12.38;2.00;;;;;;;27.83;39.56;99581.97;10099775;29;20076;-69
2022/06/25 08:48:50;;;;;;;7.90;1.67;;;;;;;28.60;38.25;99699.56;10102331;29;20140;-70
2022/06/25 08:53:52;;;;;;;4.88;1.80;;;;;;;28.49;38.20;99673.56;10113817;29;20495;-69
2022/06/25 08:58:53;;;;;;;7.03;1.80;;;;;;;27.64;38.15;99576.50;10089509;29;20041;-69
2022/06/25 09:03:54;;;;;;;5.57;2.13;;;;;;;27.89;38.74;99673.56;10097263;29;20053;-68
2022/06/25 09:09:24;;;;;;;11.40;2.30;;;;;;;27.70;38.94;99663.47;10099669;29;20053;-69
2022/06/25 09:14:28;;;;;;;8.05;1.95;;;;;;;27.23;40.91;99650.84;10086650;29;20105;-69
2022/06/25 09:19:41;;;;;;;3.05;1.83;;;;;;;27.03;41.20;99644.53;10094105;29;20049;-70
2022/06/25 09:24:44;;;;;;;5.20;1.77;;;;;;;26.89;41.39;99653.72;10098099;29;20415;-70
2022/06/25 09:29:49;;;;;;;4.65;1.52;;;;;;;27.06;42.30;99678.56;10096206;29;20053;-69
2022/06/25 09:57:12;;;;;;;8.63;2.83;;;;;;;27.75;40.52;99578.75;10493070;27;1728746;-70
2022/06/25 10:02:13;;;;;;;6.22;1.90;;;;;;;28.03;40.25;99600.69;10546576;28;20071;-68
2022/06/25 10:07:15;;;;;;;6.88;2.05;;;;;;;28.61;40.03;99637.53;10528990;28;20052;-69
2022/06/25 10:12:16;;;;;;;7.60;2.08;;;;;;;28.01;39.68;99526.47;10490011;28;20094;-69
2022/06/25 10:17:17;;;;;;;5.00;1.90;;;;;;;28.61;39.38;99616.47;10489944;28;20044;-67
2022/06/25 10:22:18;;;;;;;4.50;1.92;;;;;;;28.49;38.14;99607.19;10488692;28;20040;-70
2022/06/25 10:27:21;;;;;;;6.05;2.38;;;;;;;28.57;39.72;99669.28;10489325;28;20527;-68
2022/06/25 10:32:25;;;;;;;7.35;2.60;;;;;;;28.59;39.35;99650.69;10489124;28;20036;-70
2022/06/25 10:37:25;;;;;;;6.22;2.28;;;;;;;28.68;40.19;99622.31;10489370;28;20037;-68
2022/06/25 10:47:52;;;;;;;6.88;2.08;;;;;;;28.61;39.73;99607.47;10488857;28;20128;-68
2022/06/25 10:53:02;;;;;;;7.50;3.50;;;;;;;28.71;38.80;99650.97;10469835;28;20156;-68
2022/06/25 10:58:27;;;;;;;10.25;2.33;;;;;;;28.95;38.57;99642.53;10497936;28;20068;-68
2022/06/25 11:03:27;;;;;;;8.45;2.95;;;;;;;29.19;38.59;99620.41;10539787;28;20040;-69
2022/06/25 11:08:37;;;;;;;6.40;2.55;;;;;;;29.43;38.43;99617.38;10498299;28;20057;-69
2022/06/25 11:13:42;;;;;;;8.27;2.65;;;;;;;29.49;37.90;99610.66;10462769;28;20041;-68
2022/06/25 11:18:51;;;;;;;12.45;2.80;;;;;;;29.39;38.51;99597.22;10460571;28;20472;-69
2022/06/25 11:23:53;;;;;;;3.30;1.90;;;;;;;29.30;38.01;99612.78;10490515;28;20032;-69
2022/06/25 11:28:53;;;;;;;12.27;2.45;;;;;;;29.45;38.79;99630.75;10493474;28;20040;-69
2022/06/25 11:33:54;;;;;;;3.90;2.15;;;;;;;29.21;38.48;99584.56;10511317;28;20041;-69
2022/06/25 11:38:55;;;;;;;6.28;2.42;;;;;;;29.41;38.27;99627.03;10497012;28;20040;-68
2022/06/25 11:44:05;;;;;;;9.20;2.05;;;;;;;29.40;38.15;99622.66;10509708;28;20036;-68
2022/06/25 11:49:06;;;;;;;6.50;2.13;;;;;;;29.23;38.37;99606.94;10497331;28;20044;-68
2022/06/25 11:54:07;;;;;;;7.80;2.08;;;;;;;29.71;38.04;99630.97;10467807;28;20049;-68
2022/06/25 11:59:08;;;;;;;17.80;2.58;;;;;;;29.56;38.26;99630.19;10485601;28;20091;-69
2022/06/25 12:04:09;;;;;;;8.23;2.60;;;;;;;29.42;39.10;99628.63;10467930;28;20136;-69
2022/06/25 12:09:10;;;;;;;9.98;2.50;;;;;;;28.63;39.83;99548.66;10459929;28;20457;-68
2022/06/25 12:14:11;;;;;;;15.77;2.58;;;;;;;29.17;39.69;99649.19;10472556;28;20072;-69
2022/06/25 12:19:11;;;;;;;7.03;2.30;;;;;;;28.60;40.05;99523.88;10470488;28;20064;-68
2022/06/25 12:24:15;;;;;;;6.07;1.80;;;;;;;28.72;39.33;99540.56;10498508;28;20052;-70
2022/06/25 12:29:19;;;;;;;14.13;2.72;;;;;;;29.49;40.97;99638.00;10457692;28;20274;-69
2022/06/25 12:34:20;;;;;;;10.90;2.20;;;;;;;29.04;39.41;99544.19;10456382;28;20488;-69
2022/06/25 12:39:38;;;;;;;9.27;2.42;;;;;;;29.63;38.86;99645.38;10456751;28;20033;-69
2022/06/25 12:44:41;;;;;;;5.95;2.22;;;;;;;29.32;39.11;99643.38;10456671;28;20075;-69
2022/06/25 12:49:47;;;;;;;;;;;;;;;29.42;39.39;99640.38;10456816;28;20128;-68
2022/06/25 12:54:52;;;;;;;7.82;2.20;;;;;;;29.15;39.08;99646.75;10456662;28;19974;-70
2022/06/25 12:59:54;;;;;;;5.65;2.13;;;;;;;28.41;39.66;99529.47;10455469;28;20044;-69
2022/06/25 13:04:55;;;;;;;6.25;2.13;;;;;;;28.75;38.69;99596.50;10455686;28;20045;-69
2022/06/25 13:09:56;;;;;;;13.35;2.60;;;;;;;28.31;39.82;99532.41;10467485;28;20041;-69
2022/06/25 13:14:58;;;;;;;7.15;2.15;;;;;;;28.32;40.14;99561.31;10454870;28;20044;-69
2022/06/25 13:19:58;;;;;;;28.63;4.25;;;;;;;28.22;40.98;99546.78;10455344;28;20045;-69
2022/06/25 13:25:01;;;;;;;13.13;2.60;;;;;;;28.50;40.66;99604.13;10454104;28;20048;-68
2022/06/25 13:30:02;;;;;;;10.07;2.67;;;;;;;27.96;41.33;99556.59;10459531;28;20033;-68
2022/06/25 13:35:05;;;;;;;4.75;2.13;;;;;;;28.29;41.90;99625.56;10459254;28;20055;-69
2022/06/25 13:40:07;;;;;;;8.93;2.75;;;;;;;27.61;42.25;99525.28;10470101;28;20515;-69
2022/06/25 13:45:08;;;;;;;13.40;3.00;;;;;;;28.15;42.77;99622.00;10472974;28;20051;-69
2022/06/25 13:50:09;;;;;;;7.75;2.10;;;;;;;27.91;42.67;99581.25;10464268;28;20052;-69
2022/06/25 13:55:10;;;;;;;5.40;2.38;;;;;;;28.12;42.92;99618.00;10454451;28;20078;-70
2022/06/25 14:00:11;;;;;;;7.40;2.10;;;;;;;27.98;42.83;99603.50;10454261;28;20542;-70
2022/06/25 14:05:12;;;;;;;7.50;2.20;;;;;;;27.17;42.86;99461.97;10435682;28;20128;-70
2022/06/25 14:10:14;;;;;;;6.28;2.00;;;;;;;27.84;43.13;99559.81;10453647;28;20140;-70
2022/06/25 14:15:15;;;;;;;19.35;3.45;;;;;;;27.24;43.85;99462.38;10454722;28;20047;-69
2022/06/25 14:20:16;;;;;;;4.95;2.60;;;;;;;27.15;44.04;99447.03;10453854;28;20518;-69
2022/06/25 14:25:24;;;;;;;7.88;2.35;;;;;;;27.99;44.60;99592.28;10453608;28;20040;-69
2022/06/25 14:30:26;;;;;;;11.68;2.72;;;;;;;27.80;44.53;99571.66;10453761;28;20099;-69
2022/06/25 14:35:28;;;;;;;11.00;2.47;;;;;;;27.84;44.86;99578.09;10452854;28;20044;-69
2022/06/25 14:45:49;;;;;;;10.15;2.80;;;;;;;27.57;45.30;99551.56;10461398;28;20214;-69
2022/06/25 14:50:49;;;;;;;10.10;2.53;;;;;;;27.53;45.44;99549.44;10471468;28;20128;-68
2022/06/25 14:55:50;;;;;;;14.65;4.28;;;;;;;27.53;45.14;99559.53;10484632;28;20131;-69
2022/06/25 15:00:51;;;;;;;11.40;2.90;;;;;;;27.61;45.22;99583.41;10466318;28;20051;-69
2022/06/25 15:05:53;;;;;;;30.00;3.47;;;;;;;27.32;44.98;99534.53;10501872;28;20165;-69
2022/06/25 15:10:54;;;;;;;7.90;2.30;;;;;;;27.61;45.04;99577.94;10494193;28;20044;-69
2022/06/25 15:15:55;;;;;;;11.95;2.72;;;;;;;27.47;44.53;99553.34;10460124;28;20043;-69
2022/06/25 15:20:56;;;;;;;5.93;2.63;;;;;;;27.60;44.83;99565.41;10459904;28;20043;-69
2022/06/25 15:25:56;;;;;;;19.80;2.90;;;;;;;27.76;44.94;99561.31;10459459;28;20485;-69
2022/06/25 15:30:57;;;;;;;7.03;2.45;;;;;;;27.75;44.45;99546.03;10459941;28;20041;-69
2022/06/25 15:35:58;;;;;;;6.78;2.15;;;;;;;27.70;44.64;99562.50;10459777;28;20545;-70
2022/06/25 15:40:59;;;;;;;8.65;2.60;;;;;;;27.42;44.46;99552.63;10459030;28;20131;-69
2022/06/25 15:46:01;;;;;;;77.68;7.18;;;;;;;27.38;45.03;99576.97;10459075;28;20090;-69
2022/06/25 15:51:02;;;;;;;159.30;10.90;;;;;;;27.14;45.55;99562.63;10463084;28;20504;-70
2022/06/25 15:56:03;;;;;;;10.68;2.60;;;;;;;26.95;46.11;99546.25;10459097;28;20088;-69
2022/06/25 16:01:03;;;;;;;21.73;5.22;;;;;;;26.80;46.40;99542.69;10481037;28;20143;-69
2022/06/25 16:06:04;;;;;;;104.88;9.32;;;;;;;26.89;46.89;99570.06;10479166;28;20074;-69
2022/06/25 16:16:25;;;;;;;15.40;3.45;;;;;;;26.08;47.85;99482.09;10472302;28;20041;-69
2022/06/25 16:21:26;;;;;;;12.13;2.72;;;;;;;26.54;48.05;99560.50;10457384;28;20053;-69
2022/06/25 16:26:27;;;;;;;42.53;4.47;;;;;;;26.52;49.69;99576.31;10457265;28;20049;-69
2022/06/25 16:31:28;;;;;;;33.25;3.85;;;;;;;26.20;50.68;99553.25;10456703;28;20040;-69
2022/06/25 16:36:29;;;;;;;51.10;6.40;;;;;;;26.15;51.25;99573.19;10456946;28;20041;-69
2022/06/25 16:41:30;;;;;;;60.55;23.92;;;;;;;26.06;52.11;99582.28;10460962;28;20449;-69
2022/06/25 16:46:43;;;;;;;71.00;28.13;;;;;;;25.94;52.42;99590.84;10444881;28;20044;-79
2022/06/25 16:51:46;;;;;;;124.15;47.05;;;;;;;25.77;52.39;99583.06;10473658;28;20142;-77
2022/06/25 16:56:49;;;;;;;104.27;37.57;;;;;;;25.59;53.30;99572.94;10475054;28;20079;-77
2022/06/25 17:01:50;;;;;;;;;;;;;;;25.83;52.45;99590.13;10474381;28;20041;-78
2022/06/25 17:06:51;;;;;;;30.20;12.82;;;;;;;24.99;53.85;99505.97;10474933;28;20011;-78
2022/06/25 17:11:52;;;;;;;16.73;7.25;;;;;;;25.46;54.43;99605.13;10473700;28;20559;-76
2022/06/25 17:16:53;;;;;;;9.70;3.22;;;;;;;25.45;53.83;99603.47;10474594;28;20044;-77
2022/06/25 17:21:54;;;;;;;7.78;3.03;;;;;;;25.45;54.65;99613.56;10473148;28;20033;-77
2022/06/25 17:26:55;;;;;;;6.53;2.50;;;;;;;25.39;55.25;99606.53;10474367;28;20392;-77
2022/06/25 17:31:55;;;;;;;9.70;2.83;;;;;;;25.09;55.69;99572.22;10472768;28;20074;-77
2022/06/25 17:36:56;;;;;;;9.73;2.78;;;;;;;25.09;56.40;99591.22;10472486;28;20060;-78
2022/06/25 17:41:57;;;;;;;20.05;3.03;;;;;;;25.06;57.36;99607.00;10436562;28;20040;-77
2022/06/25 17:46:58;;;;;;;26.27;7.82;;;;;;;25.01;59.23;99628.78;10455091;28;20473;-77
2022/06/25 17:52:00;;;;;;;27.50;11.60;;;;;;;24.94;60.31;99627.47;10454241;28;20045;-78
2022/06/25 17:57:01;;;;;;;51.35;23.73;;;;;;;24.08;60.74;99513.56;10454836;28;20053;-77
2022/06/25 18:02:03;;;;;;;81.47;34.33;;;;;;;24.57;61.12;99602.38;10453655;28;20048;-77
2022/06/25 18:07:07;;;;;;;88.65;29.25;;;;;;;24.64;62.50;99623.81;10454262;28;20045;-77
2022/06/25 18:12:08;;;;;;;65.30;28.65;;;;;;;24.22;63.45;99586.22;10453781;28;20476;-76
2022/06/25 18:17:09;;;;;;;76.55;31.48;;;;;;;24.34;62.56;99608.41;10483802;28;20087;-77
2022/06/25 18:22:10;;;;;;;41.13;15.98;;;;;;;24.49;63.17;99637.44;10504255;28;20040;-77
2022/06/25 18:27:11;;;;;;;12.25;6.57;;;;;;;23.77;62.56;99514.72;10503290;28;20138;-77
2022/06/25 18:32:12;;;;;;;14.90;5.78;;;;;;;24.34;62.29;99592.94;10476567;28;20029;-77
2022/06/25 18:37:12;;;;;;;18.42;5.53;;;;;;;24.53;63.00;99614.06;10461402;28;20041;-77
2022/06/25 18:42:13;;;;;;;17.63;6.05;;;;;;;23.72;64.49;99499.25;10461612;28;20040;-77
2022/06/25 18:47:14;;;;;;;16.38;5.38;;;;;;;23.61;65.35;99498.47;10468622;28;20040;-79
2022/06/25 18:52:15;;;;;;;12.43;4.32;;;;;;;24.25;66.27;99604.66;10466123;28;20052;-76
2022/06/25 18:57:16;;;;;;;9.48;4.25;;;;;;;24.05;66.09;99568.38;10494454;28;20550;-77
2022/06/25 19:02:17;;;;;;;19.58;9.75;;;;;;;23.80;65.68;99520.41;10501338;28;20119;-77
2022/06/25 19:07:18;;;;;;;20.65;7.05;;;;;;;24.18;66.50;99577.00;10469526;28;20094;-77
2022/06/25 19:12:19;;;;;;;13.80;6.57;;;;;;;23.94;67.70;99545.06;10459962;28;20510;-78
2022/06/25 19:17:20;;;;;;;13.82;5.65;;;;;;;23.90;68.11;99557.53;10459681;28;20477;-78
2022/06/25 19:22:20;;;;;;;14.35;5.18;;;;;;;23.99;68.39;99615.59;10459620;28;20080;-78
2022/06/25 19:27:22;;;;;;;19.65;8.88;;;;;;;23.83;68.87;99609.34;10458495;28;20041;-78
2022/06/25 19:32:23;;;;;;;18.75;10.32;;;;;;;23.59;69.36;99592.00;10459028;28;20047;-78
2022/06/25 19:37:23;;;;;;;19.70;8.77;;;;;;;23.09;70.13;99529.38;10458588;28;20043;-78
2022/06/25 19:42:24;;;;;;;14.25;7.05;;;;;;;23.59;71.01;99613.69;10459150;28;20036;-78
2022/06/25 19:47:25;;;;;;;22.30;9.38;;;;;;;23.29;72.26;99581.97;10459373;28;20048;-78
2022/06/25 19:52:26;;;;;;;24.05;10.82;;;;;;;23.20;72.97;99579.78;10459001;28;20431;-78
2022/06/25 19:57:27;;;;;;;50.40;28.60;;;;;;;23.40;73.52;99622.38;10459007;28;20061;-78
2022/06/25 20:02:28;;;;;;;36.17;20.92;;;;;;;23.47;74.25;99632.94;10458292;28;20041;-78
2022/06/25 20:07:29;;;;;;;34.22;16.42;;;;;;;21.98;74.65;99393.56;10473908;28;20079;-78
2022/06/25 20:12:29;;;;;;;27.02;13.23;;;;;;;23.47;75.36;99627.50;10458076;28;20049;-77
2022/06/25 20:17:30;;;;;;;20.67;9.65;;;;;;;23.46;75.04;99634.03;10457131;28;20041;-77
2022/06/25 20:22:31;;;;;;;14.70;6.22;;;;;;;23.51;74.01;99628.59;10458673;28;20037;-78
2022/06/25 20:27:32;;;;;;;23.27;6.70;;;;;;;23.60;73.50;99620.72;10458173;28;20045;-78
2022/06/25 20:32:34;;;;;;;10.73;5.50;;;;;;;22.85;73.44;99493.88;10457727;28;20428;-78
2022/06/25 20:37:35;;;;;;;12.82;5.22;;;;;;;23.44;73.29;99581.97;10455507;28;20067;-78
2022/06/25 20:42:37;;;;;;;10.20;4.07;;;;;;;23.46;73.49;99582.53;10456404;28;20123;-77
2022/06/25 20:47:38;;;;;;;13.65;4.43;;;;;;;23.63;73.93;99569.50;10456932;28;20045;-78
2022/06/25 20:52:40;;;;;;;16.02;4.95;;;;;;;23.47;74.43;99551.63;10456422;28;20501;-78
2022/06/25 20:57:42;;;;;;;12.60;5.70;;;;;;;22.88;74.60;99439.16;10456743;28;20064;-78
2022/06/25 21:08:06;;;;;;;8.90;4.72;;;;;;;23.26;75.99;99522.91;10455969;28;20041;-78
2022/06/25 21:13:07;;;;;;;11.98;6.20;;;;;;;23.34;76.14;99519.66;10455769;28;20047;-77
2022/06/25 21:18:09;;;;;;;10.23;4.50;;;;;;;23.10;76.11;99476.06;10471078;28;20047;-78
2022/06/25 21:23:11;;;;;;;10.45;4.07;;;;;;;23.18;76.89;99508.84;10496658;28;20047;-78
2022/06/25 21:28:12;;;;;;;9.35;4.03;;;;;;;23.16;76.11;99505.56;10484643;28;20098;-78
2022/06/25 21:33:13;;;;;;;11.07;4.20;;;;;;;22.71;76.03;99428.63;10455118;28;20566;-77
2022/06/25 21:38:14;;;;;;;6.78;4.03;;;;;;;23.16;75.71;99480.38;10437332;28;20508;-78
2022/06/25 21:43:15;;;;;;;7.55;3.50;;;;;;;23.10;75.83;99470.63;10454644;28;20056;-78
2022/06/25 21:48:15;;;;;;;11.63;4.35;;;;;;;22.29;76.42;99359.31;10454963;28;20174;-78
2022/06/25 21:53:16;;;;;;;9.10;3.85;;;;;;;22.77;77.25;99460.03;10454370;28;20064;-78
2022/06/25 21:58:17;;;;;;;12.55;4.00;;;;;;;22.90;77.78;99512.03;10455447;28;20037;-78
2022/06/25 22:03:18;;;;;;;9.25;3.53;;;;;;;22.73;78.87;99493.31;10454088;28;20095;-78
2022/06/25 22:08:20;;;;;;;8.88;3.95;;;;;;;22.88;78.30;99520.41;10454885;28;20090;-77
2022/06/25 22:13:20;;;;;;;7.80;3.97;;;;;;;22.82;78.89;99517.97;10454075;28;20126;-78
2022/06/25 22:18:22;;;;;;;17.90;4.28;;;;;;;22.04;79.21;99416.03;10454154;28;20068;-79
2022/06/25 22:23:28;;;;;;;10.70;4.00;;;;;;;22.82;81.31;99550.47;10454195;28;20037;-78
2022/06/25 22:28:29;;;;;;;7.75;3.70;;;;;;;22.62;79.34;99524.19;10453863;28;20041;-78
2022/06/25 22:33:30;;;;;;;9.18;4.32;;;;;;;22.74;80.04;99541.78;10453202;28;20063;-77
2022/06/25 22:38:31;;;;;;;7.95;4.10;;;;;;;22.85;79.89;99553.44;10453848;28;20047;-77
2022/06/25 22:43:32;;;;;;;7.28;4.20;;;;;;;22.76;79.70;99545.06;10453250;28;20055;-78
2022/06/25 22:48:33;;;;;;;7.05;4.22;;;;;;;22.02;80.36;99429.00;10453329;28;20127;-78
2022/06/25 22:53:33;;;;;;;6.40;4.07;;;;;;;22.61;81.12;99531.47;10452702;28;20053;-77
2022/06/25 22:58:34;;;;;;;9.95;4.53;;;;;;;22.75;81.73;99556.94;10453399;28;20045;-78
2022/06/25 23:03:36;;;;;;;8.60;4.57;;;;;;;22.71;82.76;99561.28;10457933;28;20051;-77
2022/06/25 23:08:37;;;;;;;8.35;4.47;;;;;;;21.71;82.86;99406.44;10459752;28;20041;-78
2022/06/25 23:13:40;;;;;;;11.45;5.00;;;;;;;22.48;83.61;99532.78;10459743;28;20037;-78
2022/06/25 23:18:41;;;;;;;;;;;;;;;22.73;82.62;99548.28;10460689;28;20048;-78
2022/06/25 23:23:42;;;;;;;14.43;6.38;;;;;;;21.52;82.07;99376.38;10460035;28;20287;-78
2022/06/25 23:28:43;;;;;;;22.42;5.72;;;;;;;21.80;83.06;99430.00;10459813;28;20040;-78
2022/06/25 23:33:44;;;;;;;15.27;6.45;;;;;;;22.40;83.62;99530.59;10459564;28;20041;-78
2022/06/25 23:38:45;;;;;;;14.25;6.10;;;;;;;21.86;83.87;99447.84;10459509;28;20051;-78
2022/06/25 23:43:46;;;;;;;10.57;5.57;;;;;;;22.42;84.20;99541.97;10459447;28;20048;-78
2022/06/25 23:48:47;;;;;;;18.23;6.40;;;;;;;22.34;84.64;99528.94;10459900;28;20106;-78
2022/06/25 23:53:48;;;;;;;13.20;5.60;;;;;;;21.49;85.42;99409.31;10458558;28;20084;-78
2022/06/25 23:58:49;;;;;;;20.52;5.40;;;;;;;22.17;86.71;99512.13;10459120;28;20631;-77
